| Record Date MM/DD/YYYY | Record Time HH:MM:SS | Record Julian Date NNN day of the year | Air Temperature Max (Degrees Fahrenheit F) | Time Max Air Temperature HH:MM:SS This is the time of max air temp for the prior hour interval listed for record [Time]. | Air Temperature Min (Degrees Fahrenheit F) | Time Min Air Temperature HH:MM:SS This is the time of min air temp for the prior hour interval listed for record [Time]. | Air Temperature Observed (Degrees Fahrenheit F) This is an instantaneous reading at the record [Time]. | Relative Humidity Max (Percent) | Time Max Relative Humidity HH:MM:SS This is the time of max relative humidity for the prior hour interval listed for record [Time]. | Relative Humidity Min (Percent) | Time Min Relative Humidity HH:MM:SS This is the time of min relative humidity for the prior hour interval listed for record [Time]. | Relative Humidity Observed (Percent) This is an instantaneous reading at the record [Time]. | Precipitation (Inches n.nn) rain fall that occurred during the prior hour interval listed for record [Time]. | Wind Speed (Miles Per Hour) Resultant Speed that occurred during the prior hour interval listed for record [Time]. | Wind Direction (Degrees) Resultant Direction that occurred during the prior hour interval listed for record [Time]. | Solar Radiation (Langley's) that occurred during the prior hour interval listed for record [Time]. | Soil Temperature Average at 2 inch depth (Degrees Fahrenheit F) that occurred during the prior hour interval listed for record [Time]. | Soil Temperature Observed at 2 inch depth (Degrees Fahrenheit F) This is an instantaneous reading at the record [Time]. | Soil Temperature Average at 4 inch depth (Degrees Fahrenheit F) that occurred during the prior hour interval listed for record [Time]. | Soil Temperature Observed at 4 inch depth (Degrees Fahrenheit F) This is an instantaneous reading at the record [Time]. |
|---|---|---|---|---|---|---|---|---|---|---|---|---|---|---|---|---|---|---|---|---|
| 05/01/2026 | 0:00:00 | 121 | 59 | 23:36:01 | 58 | 23:59:05 | 59 | 87 | 23:06:02 | 80 | 23:35:03 | 84.4 | 0 | 3.4 | 24 | 0 | 66 | 65 | 68 | 68 |
| 05/01/2026 | 1:00:00 | 121 | 59 | 0:36:00 | 58 | 0:59:05 | 58 | 85 | 0:05:00 | 78 | 0:35:03 | 81.8 | 0 | 4.1 | 30 | 0 | 65 | 65 | 68 | 68 |
| 05/01/2026 | 2:00:00 | 121 | 59 | 1:50:05 | 58 | 1:08:00 | 58 | 83 | 1:07:04 | 75 | 1:50:03 | 77.87 | 0 | 4.8 | 32 | 0 | 65 | 65 | 67 | 67 |
| 05/01/2026 | 3:00:00 | 121 | 58 | 2:00:00 | 58 | 2:59:00 | 58 | 83 | 3:00:00 | 76 | 2:07:05 | 83 | 0 | 4.4 | 29 | 0 | 64 | 64 | 67 | 67 |
| 05/01/2026 | 4:00:00 | 121 | 58 | 3:25:04 | 57 | 3:59:02 | 57 | 86 | 3:58:02 | 77 | 3:25:00 | 85.1 | 0 | 3.5 | 30 | 0 | 64 | 64 | 67 | 66 |
| 05/01/2026 | 5:00:00 | 121 | 57 | 4:19:03 | 56 | 4:57:00 | 56 | 90 | 4:41:05 | 80 | 4:15:05 | 87 | 0 | 3.3 | 24 | 0 | 64 | 64 | 66 | 66 |
| 05/01/2026 | 6:00:00 | 121 | 56 | 5:15:00 | 56 | 5:24:05 | 56 | 88 | 5:53:05 | 84 | 5:15:04 | 87.6 | 0 | 3.8 | 23 | 0 | 64 | 63 | 66 | 66 |
| 05/01/2026 | 7:00:00 | 121 | 57 | 6:39:05 | 56 | 6:02:05 | 57 | 88 | 6:00:00 | 82 | 6:59:04 | 82.7 | 0 | 3.9 | 20 | 4 | 63 | 64 | 66 | 66 |
| 05/01/2026 | 8:00:00 | 121 | 58 | 7:54:03 | 57 | 7:00:00 | 58 | 85 | 7:22:00 | 79 | 7:56:03 | 79.47 | 0 | 5.8 | 27 | 7 | 64 | 64 | 66 | 66 |
| 05/01/2026 | 9:00:00 | 121 | 59 | 8:57:03 | 58 | 8:00:01 | 59 | 81 | 8:02:03 | 75 | 8:45:04 | 75.82 | 0 | 4.2 | 38 | 9 | 64 | 64 | 66 | 66 |
| 05/01/2026 | 10:00:00 | 121 | 60 | 9:52:01 | 59 | 9:00:01 | 60 | 79 | 9:04:00 | 67 | 9:55:03 | 68.18 | 0 | 5.8 | 46 | 18 | 64 | 65 | 66 | 66 |
| 05/01/2026 | 11:00:00 | 121 | 61 | 10:53:00 | 60 | 10:15:04 | 61 | 72 | 10:25:02 | 64 | 10:41:05 | 67.77 | 0 | 5.6 | 43 | 15 | 65 | 65 | 66 | 66 |
| 05/01/2026 | 12:00:00 | 121 | 61 | 11:00:05 | 61 | 11:49:03 | 61 | 72 | 12:00:00 | 61 | 11:20:04 | 72.47 | 0 | 5.1 | 45 | 13 | 65 | 66 | 66 | 66 |
| 05/01/2026 | 13:00:00 | 121 | 61 | 12:59:05 | 61 | 12:14:03 | 61 | 73 | 12:00:00 | 64 | 12:03:05 | 68.27 | 0 | 3.5 | 58 | 16 | 66 | 66 | 66 | 66 |
| 05/01/2026 | 14:00:00 | 121 | 63 | 13:59:04 | 61 | 13:07:04 | 63 | 71 | 13:00:04 | 58 | 13:46:03 | 60.6 | 0 | 5.0 | 52 | 22 | 66 | 67 | 66 | 67 |
| 05/01/2026 | 15:00:00 | 121 | 64 | 14:50:05 | 63 | 14:03:00 | 64 | 64 | 14:01:00 | 55 | 14:54:00 | 58.97 | 0 | 6.5 | 48 | 33 | 67 | 68 | 67 | 67 |
| 05/01/2026 | 16:00:00 | 121 | 64 | 15:41:01 | 63 | 15:59:02 | 63 | 65 | 15:06:00 | 59 | 15:04:03 | 62.59 | 0 | 6.2 | 54 | 20 | 68 | 68 | 67 | 67 |
| 05/01/2026 | 17:00:00 | 121 | 63 | 16:05:02 | 63 | 16:58:05 | 63 | 71 | 16:42:00 | 62 | 16:00:03 | 68.86 | 0 | 4.5 | 54 | 9 | 68 | 67 | 67 | 67 |
| 05/01/2026 | 18:00:00 | 121 | 63 | 17:00:00 | 62 | 17:55:04 | 62 | 76 | 17:41:04 | 67 | 17:06:04 | 73.9 | 0 | 2.1 | 64 | 4 | 67 | 67 | 67 | 67 |
| 05/01/2026 | 19:00:00 | 121 | 62 | 18:00:00 | 60 | 18:52:01 | 60 | 89 | 18:59:05 | 72 | 18:04:03 | 88.4 | 0 | 1.1 | 338 | 0 | 66 | 66 | 67 | 67 |
| 05/01/2026 | 20:00:00 | 121 | 61 | 19:28:04 | 60 | 19:22:00 | 60 | 92 | 19:20:01 | 67 | 19:54:02 | 72.21 | 0 | 4.0 | 354 | 0 | 66 | 65 | 67 | 67 |
| 05/01/2026 | 21:00:00 | 121 | 60 | 20:03:04 | 59 | 20:57:02 | 59 | 73 | 20:00:03 | 66 | 20:18:00 | 68.77 | 0 | 7.2 | 11 | 0 | 65 | 64 | 67 | 66 |
| 05/01/2026 | 22:00:00 | 121 | 59 | 21:33:05 | 58 | 21:53:03 | 59 | 71 | 21:01:04 | 62 | 21:32:05 | 67.24 | 0 | 7.0 | 11 | 0 | 64 | 63 | 66 | 66 |
| 05/01/2026 | 23:00:00 | 121 | 59 | 22:16:04 | 58 | 22:12:05 | 59 | 70 | 22:12:00 | 62 | 22:54:02 | 64.64 | 0 | 5.7 | 23 | 0 | 63 | 63 | 66 | 65 |
| 05/02/2026 | 0:00:00 | 122 | 59 | 23:38:00 | 58 | 23:23:00 | 58 | 71 | 23:22:04 | 61 | 23:35:00 | 66.44 | 0 | 3.8 | 44 | 0 | 63 | 62 | 65 | 65 |
| 05/02/2026 | 1:00:00 | 122 | 58 | 0:00:00 | 57 | 1:00:00 | 57 | 73 | 0:59:05 | 64 | 0:03:03 | 71.75 | 0 | 2.4 | 48 | 0 | 62 | 62 | 65 | 65 |
| 05/02/2026 | 2:00:00 | 122 | 58 | 1:16:00 | 55 | 1:49:04 | 55 | 82 | 1:48:03 | 66 | 1:14:01 | 81 | 0 | 2.9 | 21 | 0 | 62 | 62 | 65 | 64 |
| 05/02/2026 | 3:00:00 | 122 | 56 | 2:08:05 | 54 | 2:56:04 | 54 | 82 | 2:44:02 | 74 | 2:07:04 | 80.4 | 0 | 2.8 | 19 | 0 | 62 | 61 | 64 | 64 |
| 05/02/2026 | 4:00:00 | 122 | 55 | 3:16:02 | 53 | 3:58:01 | 54 | 81 | 3:30:01 | 72 | 3:44:02 | 78.08 | 0 | 3.2 | 28 | 0 | 61 | 61 | 64 | 64 |
| 05/02/2026 | 5:00:00 | 122 | 54 | 4:03:03 | 52 | 4:58:02 | 52 | 85 | 4:56:05 | 76 | 4:02:04 | 84.5 | 0 | 1.5 | 3 | 0 | 61 | 61 | 64 | 63 |
| 05/02/2026 | 6:00:00 | 122 | 53 | 5:54:01 | 52 | 5:45:00 | 52 | 85 | 5:27:02 | 82 | 5:54:04 | 84.2 | 0 | 1.4 | 11 | 2 | 60 | 60 | 63 | 63 |
| 05/02/2026 | 7:00:00 | 122 | 56 | 6:59:05 | 52 | 6:03:00 | 56 | 85 | 6:01:04 | 72 | 6:56:03 | 73.62 | 0 | 4.1 | 3 | 17 | 60 | 60 | 63 | 63 |
| 05/02/2026 | 8:00:00 | 122 | 60 | 7:59:02 | 56 | 7:02:01 | 60 | 75 | 7:09:01 | 57 | 7:52:04 | 59.92 | 0 | 5.5 | 8 | 36 | 60 | 61 | 63 | 63 |
| 05/02/2026 | 9:00:00 | 122 | 64 | 8:51:01 | 60 | 8:02:02 | 64 | 64 | 8:10:02 | 48 | 8:58:03 | 51 | 0 | 5.1 | 18 | 52 | 63 | 64 | 63 | 63 |
| 05/02/2026 | 10:00:00 | 122 | 68 | 9:54:01 | 64 | 9:00:00 | 66 | 55 | 9:00:04 | 42 | 9:51:02 | 50.43 | 0 | 4.4 | 23 | 66 | 67 | 69 | 64 | 65 |
| 05/02/2026 | 11:00:00 | 122 | 68 | 10:58:01 | 66 | 10:03:05 | 68 | 56 | 10:38:04 | 36 | 10:35:05 | 39.1 | 0 | 7.2 | 359 | 75 | 71 | 73 | 66 | 67 |
| 05/02/2026 | 12:00:00 | 122 | 70 | 11:50:05 | 68 | 11:01:01 | 69 | 54 | 11:49:05 | 32 | 11:45:01 | 45.14 | 0 | 8.4 | 353 | 79 | 74 | 76 | 68 | 69 |
| 05/02/2026 | 13:00:00 | 122 | 71 | 12:36:00 | 69 | 12:58:05 | 69 | 52 | 12:42:04 | 32 | 12:12:05 | 42.53 | 0 | 9.1 | 345 | 76 | 77 | 78 | 70 | 71 |
| 05/02/2026 | 14:00:00 | 122 | 72 | 13:59:01 | 69 | 13:13:02 | 71 | 52 | 13:00:04 | 34 | 13:16:03 | 42.41 | 0 | 8.9 | 343 | 66 | 79 | 79 | 71 | 72 |
| 05/02/2026 | 15:00:00 | 122 | 73 | 14:47:02 | 70 | 14:12:01 | 71 | 49 | 14:22:03 | 33 | 14:51:04 | 33.97 | 0 | 1.0 | 323 | 65 | 79 | 78 | 73 | 73 |
| 05/02/2026 | 16:00:00 | 122 | 72 | 15:48:03 | 71 | 15:02:01 | 71 | 50 | 15:33:02 | 32 | 15:21:02 | 36.15 | 0 | 8.7 | 337 | 49 | 77 | 76 | 73 | 73 |
| 05/02/2026 | 17:00:00 | 122 | 72 | 16:10:01 | 71 | 16:59:05 | 71 | 46 | 16:55:00 | 34 | 16:11:01 | 42.25 | 0 | 11.3 | 314 | 20 | 74 | 74 | 73 | 73 |
| 05/02/2026 | 18:00:00 | 122 | 71 | 17:11:04 | 68 | 17:57:00 | 68 | 51 | 17:34:01 | 37 | 17:10:01 | 49.64 | 0 | 6.9 | 324 | 9 | 73 | 72 | 72 | 72 |
| 05/02/2026 | 19:00:00 | 122 | 68 | 18:02:02 | 62 | 18:59:05 | 62 | 72 | 18:57:01 | 47 | 18:01:01 | 68.13 | 0 | 2.0 | 12 | 2 | 71 | 70 | 71 | 71 |
| 05/02/2026 | 20:00:00 | 122 | 62 | 19:00:00 | 58 | 19:46:05 | 59 | 80 | 19:04:05 | 66 | 19:12:05 | 70.76 | 0 | 0.4 | 203 | 0 | 69 | 68 | 71 | 70 |
| 05/02/2026 | 21:00:00 | 122 | 59 | 20:00:03 | 57 | 21:00:00 | 57 | 85 | 20:38:01 | 70 | 20:11:05 | 77.81 | 0 | 0.0 | 227 | 0 | 68 | 67 | 70 | 69 |
| 05/02/2026 | 22:00:00 | 122 | 57 | 21:15:01 | 55 | 21:33:02 | 56 | 86 | 21:58:04 | 72 | 21:14:04 | 84.9 | 0 | 0.9 | 216 | 0 | 66 | 66 | 69 | 69 |
| 05/02/2026 | 23:00:00 | 122 | 56 | 22:00:04 | 53 | 22:49:01 | 54 | 88 | 22:46:05 | 79 | 22:15:05 | 86.4 | 0 | 0.6 | 235 | 0 | 65 | 65 | 68 | 68 |
| 05/03/2026 | 0:00:00 | 123 | 55 | 23:08:02 | 52 | 23:29:00 | 53 | 93 | 23:37:02 | 86 | 23:06:03 | 91 | 0 | 0.8 | 180 | 0 | 64 | 64 | 67 | 67 |
| 05/03/2026 | 1:00:00 | 123 | 53 | 0:48:04 | 52 | 0:20:05 | 52 | 96 | 0:55:02 | 91 | 0:00:00 | 95.5 | 0 | 0.6 | 354 | 0 | 64 | 63 | 67 | 66 |
| 05/03/2026 | 2:00:00 | 123 | 53 | 1:20:01 | 51 | 1:38:00 | 52 | 97 | 1:19:03 | 96 | 1:00:01 | 96.2 | 0 | 0.9 | 356 | 0 | 63 | 62 | 66 | 66 |
| 05/03/2026 | 3:00:00 | 123 | 52 | 2:58:02 | 51 | 2:30:04 | 52 | 97 | 2:38:04 | 93 | 2:59:03 | 93.4 | 0 | 0.7 | 25 | 0 | 62 | 62 | 66 | 65 |
| 05/03/2026 | 4:00:00 | 123 | 54 | 3:47:03 | 51 | 3:03:05 | 53 | 95 | 3:02:00 | 80 | 3:47:02 | 82.7 | 0 | 2.7 | 48 | 0 | 61 | 61 | 65 | 65 |
| 05/03/2026 | 5:00:00 | 123 | 54 | 4:42:00 | 53 | 4:18:01 | 54 | 84 | 4:05:05 | 76 | 4:58:04 | 76.3 | 0 | 3.2 | 93 | 0 | 61 | 61 | 64 | 64 |
| 05/03/2026 | 6:00:00 | 123 | 55 | 5:54:05 | 53 | 5:33:03 | 55 | 78 | 5:33:02 | 72 | 5:56:01 | 72.62 | 0 | 3.2 | 131 | 3 | 60 | 60 | 64 | 64 |
| 05/03/2026 | 7:00:00 | 123 | 58 | 6:59:05 | 55 | 6:00:00 | 58 | 73 | 6:00:03 | 63 | 6:57:02 | 63.71 | 0 | 4.3 | 138 | 18 | 60 | 60 | 63 | 63 |
| 05/03/2026 | 8:00:00 | 123 | 61 | 7:58:00 | 58 | 7:00:00 | 61 | 67 | 7:01:00 | 58 | 7:40:03 | 63.13 | 0 | 6.3 | 140 | 36 | 61 | 62 | 63 | 63 |
| 05/03/2026 | 9:00:00 | 123 | 66 | 8:55:05 | 61 | 8:00:00 | 65 | 65 | 8:28:02 | 55 | 8:56:03 | 62.24 | 0 | 6.1 | 147 | 53 | 63 | 65 | 64 | 64 |
| 05/03/2026 | 10:00:00 | 123 | 69 | 10:00:00 | 65 | 9:00:00 | 69 | 66 | 9:46:03 | 53 | 9:58:03 | 54.92 | 0 | 5.5 | 164 | 66 | 67 | 69 | 65 | 65 |
| 05/03/2026 | 11:00:00 | 123 | 73 | 10:58:00 | 68 | 10:04:03 | 72 | 67 | 10:25:04 | 52 | 10:59:03 | 53.8 | 0 | 4.6 | 165 | 75 | 72 | 74 | 66 | 67 |
| 05/03/2026 | 12:00:00 | 123 | 74 | 11:58:00 | 71 | 11:20:04 | 74 | 58 | 11:14:03 | 38 | 11:10:05 | 42.3 | 0 | 4.7 | 245 | 78 | 76 | 78 | 69 | 70 |
| 05/03/2026 | 13:00:00 | 123 | 75 | 12:45:00 | 73 | 12:15:02 | 75 | 54 | 12:50:05 | 36 | 12:28:01 | 39.84 | 0 | 6.6 | 245 | 78 | 80 | 81 | 71 | 72 |
| 05/03/2026 | 14:00:00 | 123 | 77 | 13:38:04 | 74 | 13:13:05 | 76 | 53 | 13:04:04 | 36 | 13:39:05 | 37.67 | 0 | 7.3 | 268 | 72 | 82 | 83 | 73 | 74 |
| 05/03/2026 | 15:00:00 | 123 | 78 | 14:48:00 | 75 | 14:02:01 | 76 | 51 | 14:47:03 | 35 | 14:09:02 | 42.14 | 0 | 7.6 | 252 | 62 | 83 | 81 | 75 | 75 |
| 05/03/2026 | 16:00:00 | 123 | 78 | 15:14:05 | 76 | 15:05:02 | 77 | 49 | 15:34:04 | 35 | 15:20:03 | 35.31 | 0 | 7.2 | 255 | 44 | 80 | 78 | 75 | 75 |
| 05/03/2026 | 17:00:00 | 123 | 78 | 16:36:05 | 76 | 16:00:02 | 77 | 47 | 16:10:01 | 35 | 16:28:03 | 36.99 | 0 | 7.2 | 246 | 17 | 77 | 76 | 75 | 75 |
| 05/03/2026 | 18:00:00 | 123 | 78 | 17:09:02 | 76 | 17:59:00 | 77 | 48 | 17:59:04 | 34 | 17:03:04 | 45.59 | 0 | 5.3 | 250 | 13 | 76 | 75 | 74 | 74 |
| 05/03/2026 | 19:00:00 | 123 | 77 | 18:00:00 | 71 | 18:59:00 | 71 | 55 | 18:40:01 | 41 | 18:08:04 | 52.78 | 0 | 4.7 | 182 | 3 | 74 | 73 | 74 | 73 |
| 05/03/2026 | 20:00:00 | 123 | 71 | 19:00:00 | 68 | 19:59:00 | 69 | 60 | 19:56:00 | 51 | 19:04:00 | 59.37 | 0 | 4.5 | 165 | 0 | 72 | 71 | 73 | 72 |
| 05/03/2026 | 21:00:00 | 123 | 69 | 20:00:01 | 67 | 20:52:00 | 67 | 65 | 20:49:05 | 59 | 20:02:00 | 63.71 | 0 | 5.3 | 168 | 0 | 71 | 70 | 72 | 72 |
| 05/03/2026 | 22:00:00 | 123 | 68 | 21:09:00 | 65 | 21:57:04 | 65 | 69 | 21:59:04 | 61 | 21:08:00 | 68.05 | 0 | 4.9 | 169 | 0 | 70 | 69 | 71 | 71 |
| 05/03/2026 | 23:00:00 | 123 | 65 | 22:00:00 | 65 | 22:42:01 | 65 | 71 | 22:07:04 | 67 | 22:30:05 | 67.52 | 0 | 4.8 | 179 | 0 | 69 | 68 | 70 | 70 |
| 05/04/2026 | 0:00:00 | 124 | 65 | 23:00:03 | 63 | 23:59:01 | 63 | 75 | 23:58:05 | 67 | 23:00:00 | 75.07 | 0 | 5.4 | 190 | 0 | 68 | 67 | 70 | 69 |
| 05/04/2026 | 1:00:00 | 124 | 63 | 0:18:00 | 62 | 0:55:05 | 62 | 79 | 0:55:02 | 74 | 0:17:03 | 77.64 | 0 | 5.0 | 191 | 0 | 67 | 67 | 69 | 69 |
| 05/04/2026 | 2:00:00 | 124 | 63 | 1:05:01 | 60 | 1:59:05 | 60 | 82 | 2:00:00 | 76 | 1:04:03 | 82.1 | 0 | 4.5 | 196 | 0 | 66 | 66 | 69 | 68 |
| 05/04/2026 | 3:00:00 | 124 | 62 | 2:11:03 | 60 | 2:33:05 | 61 | 82 | 2:00:02 | 78 | 2:11:02 | 78.35 | 0 | 5.2 | 194 | 0 | 66 | 65 | 68 | 68 |
| 05/04/2026 | 4:00:00 | 124 | 61 | 3:00:03 | 58 | 3:35:01 | 61 | 85 | 3:36:02 | 78 | 3:01:05 | 79.32 | 0 | 4.6 | 202 | 0 | 65 | 65 | 68 | 67 |
| 05/04/2026 | 5:00:00 | 124 | 61 | 4:02:05 | 58 | 4:54:03 | 58 | 84 | 4:58:00 | 79 | 4:02:03 | 83.6 | 0 | 6.1 | 203 | 0 | 64 | 64 | 67 | 67 |
| 05/04/2026 | 6:00:00 | 124 | 60 | 5:59:04 | 58 | 5:37:00 | 59 | 85 | 5:40:00 | 83 | 5:03:02 | 83 | 0 | 5.9 | 209 | 2 | 64 | 64 | 67 | 66 |
| 05/04/2026 | 7:00:00 | 124 | 64 | 6:51:01 | 59 | 6:00:03 | 64 | 83 | 6:01:02 | 73 | 6:57:04 | 74.53 | 0 | 8.3 | 219 | 17 | 64 | 64 | 66 | 66 |
| 05/04/2026 | 8:00:00 | 124 | 67 | 7:57:05 | 64 | 7:11:05 | 67 | 76 | 7:01:01 | 65 | 7:59:00 | 65.8 | 0 | 11.1 | 234 | 30 | 64 | 65 | 66 | 66 |
| 05/04/2026 | 9:00:00 | 124 | 72 | 8:55:03 | 67 | 8:00:02 | 71 | 69 | 8:02:04 | 53 | 8:57:01 | 55.28 | 0 | 12.8 | 247 | 41 | 66 | 67 | 66 | 66 |
| 05/04/2026 | 10:00:00 | 124 | 74 | 9:53:03 | 71 | 9:03:00 | 74 | 60 | 9:07:00 | 48 | 9:53:05 | 49.02 | 0 | 13.8 | 245 | 64 | 68 | 70 | 67 | 67 |
| 05/04/2026 | 11:00:00 | 124 | 76 | 10:58:03 | 74 | 10:02:04 | 76 | 59 | 10:40:00 | 45 | 11:00:00 | 45.38 | 0 | 13.3 | 225 | 73 | 72 | 73 | 68 | 69 |
| 05/04/2026 | 12:00:00 | 124 | 77 | 11:50:01 | 75 | 11:01:03 | 76 | 56 | 11:06:01 | 38 | 11:31:05 | 43.84 | 0 | 15.0 | 215 | 76 | 75 | 76 | 69 | 70 |
| 05/04/2026 | 13:00:00 | 124 | 78 | 12:57:02 | 76 | 12:50:00 | 77 | 56 | 12:37:01 | 42 | 12:08:02 | 44.8 | 0 | 1.4 | 205 | 76 | 77 | 78 | 71 | 72 |
| 05/04/2026 | 14:00:00 | 124 | 78 | 13:59:00 | 77 | 13:05:01 | 78 | 55 | 13:13:00 | 40 | 13:55:05 | 44.39 | 0 | 13.8 | 206 | 73 | 79 | 80 | 72 | 73 |
| 05/04/2026 | 15:00:00 | 124 | 79 | 14:24:00 | 77 | 14:40:01 | 78 | 51 | 14:35:01 | 40 | 14:25:00 | 44.66 | 0 | 15.7 | 211 | 62 | 79 | 78 | 74 | 74 |
| 05/04/2026 | 16:00:00 | 124 | 79 | 15:04:01 | 77 | 15:32:00 | 78 | 50 | 15:33:03 | 41 | 15:39:05 | 44.89 | 0 | 16.4 | 213 | 46 | 77 | 75 | 74 | 74 |
| 05/04/2026 | 17:00:00 | 124 | 78 | 16:00:04 | 76 | 16:50:02 | 77 | 50 | 16:33:03 | 42 | 16:20:03 | 45.56 | 0 | 14.9 | 211 | 19 | 75 | 74 | 73 | 73 |
| 05/04/2026 | 18:00:00 | 124 | 77 | 17:00:00 | 74 | 17:56:03 | 75 | 50 | 17:04:05 | 43 | 17:26:03 | 46.81 | 0 | 13.9 | 206 | 14 | 74 | 73 | 73 | 73 |
| 05/04/2026 | 19:00:00 | 124 | 75 | 18:03:01 | 71 | 18:58:00 | 71 | 56 | 18:51:01 | 46 | 18:01:02 | 53.65 | 0 | 8.6 | 201 | 3 | 72 | 71 | 72 | 72 |
| 05/04/2026 | 20:00:00 | 124 | 71 | 19:00:00 | 69 | 19:54:03 | 69 | 61 | 19:53:02 | 53 | 19:03:02 | 59.25 | 0 | 5.5 | 168 | 0 | 71 | 70 | 72 | 71 |
| 05/04/2026 | 21:00:00 | 124 | 69 | 20:02:03 | 67 | 20:52:05 | 68 | 63 | 20:19:02 | 59 | 20:03:01 | 60.44 | 0 | 6.1 | 163 | 0 | 70 | 69 | 71 | 71 |
| 05/04/2026 | 22:00:00 | 124 | 68 | 21:02:03 | 67 | 21:56:04 | 67 | 64 | 21:56:02 | 60 | 21:02:01 | 62.73 | 0 | 6.3 | 162 | 0 | 69 | 68 | 70 | 70 |
| 05/04/2026 | 23:00:00 | 124 | 67 | 22:04:05 | 66 | 22:29:02 | 67 | 67 | 22:28:05 | 62 | 22:04:04 | 64.92 | 0 | 5.8 | 173 | 0 | 68 | 68 | 70 | 70 |
| 05/05/2026 | 0:00:00 | 125 | 67 | 23:00:02 | 66 | 23:56:03 | 66 | 70 | 23:55:01 | 65 | 23:01:00 | 69.12 | 0 | 7.0 | 185 | 0 | 67 | 67 | 69 | 69 |
| 05/05/2026 | 1:00:00 | 125 | 66 | 0:00:03 | 64 | 0:59:01 | 64 | 74 | 0:58:04 | 69 | 0:00:02 | 73.58 | 0 | 6.9 | 182 | 0 | 67 | 67 | 69 | 69 |
| 05/05/2026 | 2:00:00 | 125 | 65 | 1:03:00 | 63 | 1:59:05 | 63 | 78 | 2:00:00 | 73 | 1:02:02 | 77.7 | 0 | 6.4 | 168 | 0 | 66 | 66 | 68 | 68 |
| 05/05/2026 | 3:00:00 | 125 | 63 | 2:00:00 | 62 | 2:47:05 | 62 | 81 | 2:48:05 | 78 | 2:00:02 | 80.3 | 0 | 6.5 | 161 | 0 | 66 | 66 | 68 | 68 |
| 05/05/2026 | 4:00:00 | 125 | 62 | 3:00:03 | 61 | 3:47:01 | 61 | 84 | 3:47:05 | 80 | 3:00:03 | 83.3 | 0 | 6.9 | 161 | 0 | 66 | 65 | 68 | 67 |
| 05/05/2026 | 5:00:00 | 125 | 61 | 4:00:02 | 60 | 4:45:05 | 61 | 86 | 4:30:00 | 83 | 4:00:01 | 85.3 | 0 | 7.4 | 164 | 0 | 65 | 65 | 67 | 67 |
| 05/05/2026 | 6:00:00 | 125 | 63 | 5:59:04 | 60 | 5:10:04 | 63 | 86 | 5:25:04 | 82 | 5:59:04 | 82 | 0 | 7.0 | 161 | 3 | 65 | 65 | 67 | 67 |
| 05/05/2026 | 7:00:00 | 125 | 65 | 6:58:01 | 63 | 6:00:00 | 65 | 82 | 6:00:02 | 79 | 6:20:03 | 80.5 | 0 | 7.6 | 178 | 8 | 65 | 65 | 67 | 67 |
| 05/05/2026 | 8:00:00 | 125 | 66 | 7:59:00 | 64 | 7:00:03 | 66 | 82 | 7:59:00 | 80 | 7:57:05 | 80.6 | 0 | 8.8 | 188 | 7 | 66 | 66 | 67 | 67 |
| 05/05/2026 | 9:00:00 | 125 | 69 | 8:58:03 | 66 | 8:00:00 | 69 | 82 | 8:08:04 | 77 | 8:59:01 | 77.4 | 0 | 8.7 | 186 | 16 | 66 | 67 | 67 | 67 |
| 05/05/2026 | 10:00:00 | 125 | 71 | 9:32:01 | 68 | 9:05:01 | 70 | 81 | 9:20:02 | 76 | 9:30:04 | 80.3 | 0 | 8.0 | 178 | 19 | 68 | 68 | 67 | 67 |
| 05/05/2026 | 11:00:00 | 125 | 72 | 10:59:05 | 70 | 10:00:00 | 72 | 81 | 10:53:01 | 79 | 10:46:04 | 79.42 | 0 | 11.1 | 189 | 15 | 69 | 69 | 68 | 68 |
| 05/05/2026 | 12:00:00 | 125 | 75 | 11:52:03 | 72 | 11:00:00 | 74 | 80 | 11:05:03 | 73 | 11:52:03 | 75.42 | 0 | 12.0 | 188 | 33 | 69 | 70 | 68 | 68 |
| 05/05/2026 | 13:00:00 | 125 | 76 | 12:59:02 | 74 | 12:09:01 | 76 | 78 | 12:13:04 | 73 | 12:30:02 | 75.18 | 0 | 13.3 | 192 | 30 | 71 | 71 | 69 | 69 |
| 05/05/2026 | 14:00:00 | 125 | 76 | 13:03:02 | 71 | 14:00:00 | 71 | 90 | 13:59:04 | 73 | 13:00:03 | 90.2 | 0 | 14.1 | 197 | 15 | 72 | 71 | 69 | 70 |
| 05/05/2026 | 15:00:00 | 125 | 73 | 14:59:02 | 70 | 14:10:01 | 73 | 95 | 14:17:04 | 86 | 14:57:04 | 86.2 | 0 | 9.3 | 181 | 21 | 71 | 72 | 70 | 70 |
| 05/05/2026 | 16:00:00 | 125 | 77 | 15:59:03 | 73 | 15:04:04 | 77 | 87 | 15:00:01 | 75 | 15:58:05 | 76.05 | 0 | 11.0 | 162 | 22 | 72 | 72 | 70 | 70 |
| 05/05/2026 | 17:00:00 | 125 | 77 | 16:04:01 | 76 | 16:26:03 | 77 | 79 | 16:31:04 | 75 | 16:09:05 | 76.5 | 0 | 10.3 | 179 | 8 | 72 | 72 | 70 | 71 |
| 05/05/2026 | 18:00:00 | 125 | 77 | 17:03:01 | 76 | 17:54:05 | 77 | 78 | 17:54:02 | 75 | 17:05:05 | 77.84 | 0 | 11.2 | 180 | 8 | 72 | 72 | 71 | 71 |
| 05/05/2026 | 19:00:00 | 125 | 77 | 18:03:03 | 76 | 18:45:05 | 76 | 80 | 18:59:05 | 77 | 18:02:04 | 79.55 | 0 | 10.9 | 183 | 2 | 72 | 72 | 71 | 71 |
| 05/05/2026 | 20:00:00 | 125 | 76 | 19:02:00 | 75 | 19:48:02 | 76 | 81 | 19:48:01 | 79 | 19:01:03 | 80.6 | 0 | 10.2 | 186 | 0 | 71 | 71 | 71 | 71 |
| 05/05/2026 | 21:00:00 | 125 | 76 | 20:00:01 | 74 | 20:52:01 | 74 | 84 | 20:52:00 | 81 | 20:00:01 | 83.7 | 0 | 8.5 | 183 | 0 | 71 | 71 | 71 | 70 |
| 05/05/2026 | 22:00:00 | 125 | 75 | 21:06:01 | 74 | 21:51:03 | 74 | 86 | 21:51:04 | 84 | 21:06:01 | 85.7 | 0 | 7.4 | 187 | 0 | 71 | 71 | 70 | 70 |
| 05/05/2026 | 23:00:00 | 125 | 75 | 22:59:05 | 74 | 22:00:00 | 75 | 86 | 22:12:01 | 85 | 22:59:03 | 85 | 0 | 9.1 | 189 | 0 | 71 | 71 | 70 | 70 |
| 05/06/2026 | 0:00:00 | 126 | 75 | 23:04:03 | 75 | 23:32:03 | 75 | 87 | 23:59:05 | 85 | 23:04:02 | 86.8 | 0 | 12.3 | 196 | 0 | 71 | 71 | 70 | 70 |
| 05/06/2026 | 1:00:00 | 126 | 75 | 0:20:01 | 74 | 0:58:00 | 74 | 88 | 0:57:04 | 87 | 0:00:00 | 88.3 | 0 | 13.2 | 201 | 0 | 71 | 71 | 70 | 70 |
| 05/06/2026 | 2:00:00 | 126 | 74 | 1:00:00 | 74 | 1:41:04 | 74 | 90 | 1:43:04 | 88 | 1:00:01 | 89.4 | 0 | 13.2 | 206 | 0 | 71 | 71 | 70 | 70 |
| 05/06/2026 | 3:00:00 | 126 | 74 | 2:12:05 | 74 | 2:56:03 | 74 | 90 | 2:01:03 | 89 | 2:13:02 | 89.2 | 0 | 13.5 | 206 | 0 | 71 | 71 | 70 | 70 |
| 05/06/2026 | 4:00:00 | 126 | 74 | 3:00:00 | 73 | 3:58:04 | 73 | 91 | 3:58:05 | 89 | 3:00:01 | 90.3 | 0 | 10.1 | 214 | 0 | 71 | 71 | 70 | 70 |
| 05/06/2026 | 5:00:00 | 126 | 74 | 4:26:00 | 73 | 4:57:05 | 73 | 91 | 4:59:04 | 89 | 4:26:04 | 90.6 | 0 | 10.3 | 217 | 0 | 71 | 71 | 70 | 70 |
| 05/06/2026 | 6:00:00 | 126 | 73 | 5:03:04 | 73 | 5:37:05 | 73 | 91 | 5:44:05 | 90 | 5:03:05 | 91.3 | 0 | 9.4 | 206 | 1 | 71 | 71 | 70 | 70 |
| 05/06/2026 | 7:00:00 | 126 | 74 | 6:44:02 | 66 | 6:53:03 | 67 | 98 | 6:59:05 | 86 | 6:45:01 | 97.7 | 0 | 8.0 | 230 | 3 | 71 | 71 | 70 | 70 |
| 05/06/2026 | 8:00:00 | 126 | 67 | 7:00:00 | 62 | 7:57:03 | 62 | 99 | 7:12:05 | 97 | 7:53:02 | 97.3 | 0 | 7.0 | 7 | 2 | 70 | 70 | 70 | 70 |
| 05/06/2026 | 9:00:00 | 126 | 62 | 8:00:01 | 59 | 8:56:01 | 59 | 98 | 8:04:00 | 95 | 8:52:03 | 95.8 | 0 | 10.3 | 1 | 6 | 70 | 69 | 70 | 70 |
| 05/06/2026 | 10:00:00 | 126 | 59 | 9:00:04 | 58 | 9:31:03 | 58 | 97 | 9:44:02 | 95 | 9:58:01 | 95.8 | 0 | 11.4 | 2 | 8 | 69 | 68 | 70 | 69 |
| 05/06/2026 | 11:00:00 | 126 | 59 | 10:56:00 | 58 | 10:32:04 | 58 | 96 | 10:00:00 | 92 | 10:51:04 | 93 | 0 | 12.4 | 2 | 16 | 68 | 68 | 69 | 69 |
| 05/06/2026 | 12:00:00 | 126 | 59 | 11:20:03 | 58 | 11:02:01 | 59 | 95 | 11:03:05 | 91 | 11:58:02 | 91.7 | 0 | 10.7 | 9 | 18 | 68 | 68 | 69 | 69 |
| 05/06/2026 | 13:00:00 | 126 | 60 | 12:31:03 | 58 | 12:01:05 | 59 | 93 | 12:41:02 | 90 | 12:06:05 | 92.3 | 0 | 11.0 | 11 | 12 | 68 | 68 | 69 | 69 |
| 05/06/2026 | 14:00:00 | 126 | 61 | 13:36:05 | 58 | 13:01:02 | 59 | 93 | 13:07:00 | 88 | 13:37:01 | 88.4 | 0 | 12.8 | 10 | 22 | 68 | 69 | 69 | 69 |
| 05/06/2026 | 15:00:00 | 126 | 59 | 14:00:00 | 57 | 14:34:03 | 57 | 92 | 14:35:03 | 88 | 14:00:00 | 88.9 | 0 | 15.3 | 12 | 13 | 68 | 68 | 69 | 69 |
| 05/06/2026 | 16:00:00 | 126 | 59 | 15:55:03 | 57 | 15:00:03 | 58 | 90 | 15:02:02 | 86 | 15:31:01 | 87.8 | 0 | 10.8 | 33 | 15 | 68 | 68 | 68 | 68 |
| 05/06/2026 | 17:00:00 | 126 | 59 | 16:01:05 | 58 | 16:30:01 | 58 | 89 | 16:01:02 | 87 | 16:58:04 | 87.2 | 0 | 7.2 | 33 | 5 | 68 | 68 | 68 | 68 |
| 05/06/2026 | 18:00:00 | 126 | 59 | 17:19:00 | 58 | 17:58:01 | 58 | 90 | 17:58:03 | 86 | 17:10:05 | 90.2 | 0 | 10.0 | 17 | 5 | 67 | 67 | 68 | 68 |
| 05/06/2026 | 19:00:00 | 126 | 58 | 18:00:01 | 57 | 18:59:01 | 57 | 91 | 18:46:00 | 90 | 18:33:03 | 90.7 | 0 | 11.7 | 12 | 1 | 67 | 66 | 68 | 68 |
| 05/06/2026 | 20:00:00 | 126 | 58 | 19:04:01 | 57 | 19:54:05 | 57 | 91 | 19:30:02 | 90 | 19:11:02 | 90.4 | 0 | 11.3 | 17 | 0 | 66 | 65 | 68 | 67 |
| 05/06/2026 | 21:00:00 | 126 | 57 | 20:00:00 | 56 | 20:59:05 | 56 | 92 | 20:56:04 | 90 | 20:17:03 | 91.5 | 0 | 11.0 | 18 | 0 | 65 | 65 | 67 | 67 |
| 05/06/2026 | 22:00:00 | 126 | 56 | 21:04:03 | 56 | 21:59:02 | 56 | 94 | 21:49:05 | 91 | 21:07:04 | 93 | 0 | 11.0 | 12 | 0 | 65 | 64 | 67 | 67 |
| 05/06/2026 | 23:00:00 | 126 | 56 | 22:09:03 | 55 | 22:25:00 | 56 | 94 | 22:54:00 | 93 | 22:01:00 | 93.4 | 0 | 9.2 | 7 | 0 | 64 | 64 | 66 | 66 |
| 05/07/2026 | 0:00:00 | 127 | 56 | 23:38:04 | 56 | 23:26:04 | 56 | 94 | 23:59:00 | 93 | 23:08:04 | 93.8 | 0 | 8.8 | 22 | 0 | 64 | 64 | 66 | 66 |
| 05/07/2026 | 1:00:00 | 127 | 56 | 0:00:02 | 55 | 0:53:02 | 55 | 97 | 0:50:04 | 94 | 0:01:02 | 95.9 | 0 | 9.3 | 9 | 0 | 64 | 63 | 66 | 66 |
| 05/07/2026 | 2:00:00 | 127 | 55 | 1:18:00 | 55 | 1:57:01 | 55 | 98 | 1:58:02 | 95 | 1:26:04 | 97.6 | 0 | 9.1 | 12 | 0 | 63 | 63 | 65 | 65 |
| 05/07/2026 | 3:00:00 | 127 | 55 | 2:59:01 | 54 | 2:13:02 | 55 | 99 | 2:24:01 | 97 | 2:57:03 | 97.6 | 0.01 | 8.7 | 3 | 0 | 63 | 63 | 65 | 65 |
| 05/07/2026 | 4:00:00 | 127 | 55 | 3:40:00 | 55 | 3:05:01 | 55 | 98 | 3:02:01 | 96 | 3:55:05 | 96.3 | 0 | 6.9 | 12 | 0 | 63 | 63 | 65 | 65 |
| 05/07/2026 | 5:00:00 | 127 | 55 | 4:13:02 | 54 | 4:59:03 | 54 | 97 | 4:59:04 | 95 | 4:28:02 | 96.6 | 0 | 7.0 | 6 | 0 | 63 | 62 | 65 | 65 |
| 05/07/2026 | 6:00:00 | 127 | 54 | 5:00:00 | 54 | 5:36:02 | 54 | 97 | 5:01:03 | 95 | 5:58:02 | 94.7 | 0 | 9.2 | 3 | 2 | 62 | 62 | 65 | 64 |
| 05/07/2026 | 7:00:00 | 127 | 57 | 6:43:03 | 54 | 6:02:01 | 56 | 95 | 6:02:04 | 89 | 6:45:02 | 90.3 | 0 | 9.0 | 20 | 16 | 62 | 62 | 64 | 64 |
| 05/07/2026 | 8:00:00 | 127 | 60 | 7:54:01 | 56 | 7:00:00 | 59 | 90 | 7:00:04 | 77 | 7:55:01 | 78.5 | 0 | 10.1 | 23 | 29 | 62 | 63 | 64 | 64 |
| 05/07/2026 | 9:00:00 | 127 | 62 | 8:34:01 | 59 | 8:01:00 | 61 | 81 | 8:08:03 | 68 | 8:47:02 | 70.28 | 0 | 10.4 | 30 | 42 | 64 | 65 | 64 | 65 |
| 05/07/2026 | 10:00:00 | 127 | 63 | 9:57:03 | 60 | 9:25:00 | 63 | 72 | 9:13:01 | 61 | 9:59:00 | 64.46 | 0 | 9.1 | 39 | 33 | 65 | 66 | 65 | 65 |
| 05/07/2026 | 11:00:00 | 127 | 66 | 10:58:01 | 63 | 10:14:03 | 65 | 67 | 10:04:05 | 57 | 10:59:05 | 58.11 | 0 | 9.1 | 38 | 53 | 67 | 69 | 66 | 66 |
| 05/07/2026 | 12:00:00 | 127 | 69 | 11:44:00 | 64 | 11:16:01 | 67 | 61 | 11:25:04 | 52 | 11:55:03 | 54.97 | 0 | 8.6 | 23 | 59 | 70 | 72 | 67 | 67 |
| 05/07/2026 | 13:00:00 | 127 | 69 | 12:42:03 | 67 | 12:00:03 | 68 | 58 | 12:24:05 | 53 | 12:09:03 | 55.72 | 0 | 7.3 | 17 | 45 | 73 | 74 | 68 | 69 |
| 05/07/2026 | 14:00:00 | 127 | 70 | 13:57:02 | 68 | 13:01:05 | 69 | 57 | 13:04:04 | 51 | 13:55:03 | 53.26 | 0 | 6.6 | 9 | 36 | 74 | 74 | 69 | 70 |
| 05/07/2026 | 15:00:00 | 127 | 72 | 14:59:02 | 69 | 14:03:03 | 72 | 56 | 14:03:04 | 48 | 14:53:01 | 49.22 | 0 | 6.1 | 9 | 51 | 74 | 74 | 70 | 70 |
| 05/07/2026 | 16:00:00 | 127 | 73 | 15:39:02 | 71 | 15:25:04 | 71 | 53 | 15:04:03 | 46 | 15:47:02 | 48.25 | 0 | 6.2 | 9 | 40 | 74 | 73 | 71 | 71 |
| 05/07/2026 | 17:00:00 | 127 | 72 | 16:01:02 | 70 | 16:51:02 | 70 | 51 | 16:04:01 | 46 | 16:13:05 | 48.96 | 0 | 7.5 | 6 | 19 | 73 | 72 | 71 | 71 |
| 05/07/2026 | 18:00:00 | 127 | 71 | 17:15:02 | 68 | 18:00:00 | 68 | 54 | 17:53:03 | 47 | 17:00:05 | 51.91 | 0 | 7.3 | 13 | 11 | 72 | 71 | 71 | 71 |
| 05/07/2026 | 19:00:00 | 127 | 68 | 18:00:01 | 65 | 18:59:04 | 65 | 64 | 18:57:01 | 52 | 18:00:04 | 62.64 | 0 | 4.4 | 26 | 2 | 71 | 70 | 70 | 70 |
| 05/07/2026 | 20:00:00 | 127 | 65 | 19:00:00 | 62 | 19:59:01 | 62 | 74 | 19:40:01 | 61 | 19:12:02 | 70.13 | 0 | 1.4 | 35 | 0 | 69 | 68 | 70 | 70 |
| 05/07/2026 | 21:00:00 | 127 | 63 | 20:12:03 | 60 | 20:59:03 | 60 | 79 | 20:59:05 | 65 | 20:12:00 | 79.35 | 0 | 0.7 | 17 | 0 | 68 | 67 | 69 | 69 |
| 05/07/2026 | 22:00:00 | 127 | 61 | 21:52:01 | 60 | 21:05:00 | 61 | 80 | 21:03:00 | 69 | 21:51:02 | 70.74 | 0 | 1.4 | 42 | 0 | 67 | 66 | 69 | 68 |
| 05/07/2026 | 23:00:00 | 127 | 61 | 22:00:01 | 57 | 22:47:03 | 58 | 84 | 22:55:01 | 71 | 22:04:03 | 80.7 | 0 | 0.6 | 195 | 0 | 66 | 66 | 68 | 68 |
| 05/08/2026 | 0:00:00 | 128 | 58 | 23:00:00 | 55 | 23:23:03 | 55 | 89 | 23:45:00 | 78 | 23:04:05 | 85.8 | 0 | 1.0 | 10 | 0 | 65 | 65 | 67 | 67 |
| 05/08/2026 | 1:00:00 | 128 | 56 | 0:01:03 | 54 | 0:32:02 | 55 | 89 | 0:50:03 | 83 | 0:15:02 | 87.6 | 0 | 0.5 | 218 | 0 | 64 | 64 | 67 | 67 |
| Average | 65.24 | 63.2 | 64.16 | 76.67 | 68.39 | 72.33 | 0 | 7 | 16.29 | 68.09 | 68.04 | 68.2 | 68.18 | |||||||
| Total | 0.01 |